Poularies, Canada
Current Conditions -  °F | °C
As of 7:00 PM on Friday 24 Oct 2014 (Local Time) from CYUY Reporting Station
Broken Clouds Broken Clouds  
Wind Chill: 45°   Ceiling: 10000
Heat Index: 45°   Visibility: 15mi
Dew Point: 30°   Wind: 3mph
Humidity: 57%   Direction: 200°SSW
Pressure: 29.84"   Gusts: NA
Location:  48.67°N, 78.98°W
Report Text: CYUY 242300Z 20003KT 15SM FEW035 BKN100 07/M01 A2984 RMK SC2AC3 SLP121
Loading
Personal Weather Stations






























Interactive Weather Map
Tropical Storm Tracking
New forecast layout! Learn more

10-Day Weather Forecast

Advertisements
Track Severe Weather on mobile